sensor_id;sensor_type;location;lat;lon;timestamp;temperature;humidity
23703;DHT22;12030;50.376;8.762;2023-04-24T00:02:13;10.90;99.90
23703;DHT22;12030;50.376;8.762;2023-04-24T00:04:38;10.80;99.90
23703;DHT22;12030;50.376;8.762;2023-04-24T00:07:10;10.80;99.90
23703;DHT22;12030;50.376;8.762;2023-04-24T00:09:35;10.90;99.90
23703;DHT22;12030;50.376;8.762;2023-04-24T00:12:01;10.80;99.90
23703;DHT22;12030;50.376;8.762;2023-04-24T00:14:30;10.80;99.90
23703;DHT22;12030;50.376;8.762;2023-04-24T00:16:55;10.80;99.90
23703;DHT22;12030;50.376;8.762;2023-04-24T00:19:21;10.70;99.90
23703;DHT22;12030;50.376;8.762;2023-04-24T00:21:47;10.70;99.90
23703;DHT22;12030;50.376;8.762;2023-04-24T00:24:15;10.70;99.90
23703;DHT22;12030;50.376;8.762;2023-04-24T00:26:41;10.70;99.90
23703;DHT22;12030;50.376;8.762;2023-04-24T00:29:07;10.70;99.90
23703;DHT22;12030;50.376;8.762;2023-04-24T00:31:32;10.80;99.90
23703;DHT22;12030;50.376;8.762;2023-04-24T00:34:00;10.80;99.90
23703;DHT22;12030;50.376;8.762;2023-04-24T00:36:26;10.80;99.90
23703;DHT22;12030;50.376;8.762;2023-04-24T00:38:52;10.90;99.90
23703;DHT22;12030;50.376;8.762;2023-04-24T00:41:18;10.90;99.90
23703;DHT22;12030;50.376;8.762;2023-04-24T00:43:44;10.90;99.90
23703;DHT22;12030;50.376;8.762;2023-04-24T00:46:10;11.00;99.90
23703;DHT22;12030;50.376;8.762;2023-04-24T00:48:38;11.00;99.90
23703;DHT22;12030;50.376;8.762;2023-04-24T00:51:04;11.00;99.90
23703;DHT22;12030;50.376;8.762;2023-04-24T00:53:29;11.10;99.90
23703;DHT22;12030;50.376;8.762;2023-04-24T00:55:56;11.10;99.90
23703;DHT22;12030;50.376;8.762;2023-04-24T00:58:22;11.10;99.90
23703;DHT22;12030;50.376;8.762;2023-04-24T01:00:49;11.10;99.90
23703;DHT22;12030;50.376;8.762;2023-04-24T01:03:16;11.20;99.90
23703;DHT22;12030;50.376;8.762;2023-04-24T01:05:42;11.20;99.90
23703;DHT22;12030;50.376;8.762;2023-04-24T01:08:07;11.20;99.90
23703;DHT22;12030;50.376;8.762;2023-04-24T01:10:33;11.20;99.90
23703;DHT22;12030;50.376;8.762;2023-04-24T01:13:01;11.20;99.90
23703;DHT22;12030;50.376;8.762;2023-04-24T01:15:26;11.30;99.90
23703;DHT22;12030;50.376;8.762;2023-04-24T01:17:52;11.30;99.90
23703;DHT22;12030;50.376;8.762;2023-04-24T01:20:17;11.30;99.90
23703;DHT22;12030;50.376;8.762;2023-04-24T01:22:43;11.30;99.90
23703;DHT22;12030;50.376;8.762;2023-04-24T01:25:09;11.40;99.90
23703;DHT22;12030;50.376;8.762;2023-04-24T01:27:34;11.40;99.90
23703;DHT22;12030;50.376;8.762;2023-04-24T01:30:00;11.40;99.90
23703;DHT22;12030;50.376;8.762;2023-04-24T01:32:26;11.40;99.90
23703;DHT22;12030;50.376;8.762;2023-04-24T01:34:52;11.40;99.90
23703;DHT22;12030;50.376;8.762;2023-04-24T01:37:17;11.40;99.90
23703;DHT22;12030;50.376;8.762;2023-04-24T01:39:43;11.50;99.90
23703;DHT22;12030;50.376;8.762;2023-04-24T01:42:09;11.40;99.90
23703;DHT22;12030;50.376;8.762;2023-04-24T01:44:35;11.50;99.90
23703;DHT22;12030;50.376;8.762;2023-04-24T01:47:01;11.40;99.90
23703;DHT22;12030;50.376;8.762;2023-04-24T01:49:27;11.50;99.90
23703;DHT22;12030;50.376;8.762;2023-04-24T01:51:52;11.50;99.90
23703;DHT22;12030;50.376;8.762;2023-04-24T01:54:18;11.50;99.90
23703;DHT22;12030;50.376;8.762;2023-04-24T01:56:43;11.50;99.90
23703;DHT22;12030;50.376;8.762;2023-04-24T01:59:11;11.50;99.90
23703;DHT22;12030;50.376;8.762;2023-04-24T02:01:38;11.50;99.90
23703;DHT22;12030;50.376;8.762;2023-04-24T02:04:04;11.50;99.90
23703;DHT22;12030;50.376;8.762;2023-04-24T02:06:30;11.50;99.90
23703;DHT22;12030;50.376;8.762;2023-04-24T02:08:57;11.50;99.90
23703;DHT22;12030;50.376;8.762;2023-04-24T02:11:23;11.50;99.90
23703;DHT22;12030;50.376;8.762;2023-04-24T02:13:48;11.50;99.90
23703;DHT22;12030;50.376;8.762;2023-04-24T02:16:15;11.50;99.90
23703;DHT22;12030;50.376;8.762;2023-04-24T02:18:41;11.60;99.90
23703;DHT22;12030;50.376;8.762;2023-04-24T02:21:06;11.50;99.90
23703;DHT22;12030;50.376;8.762;2023-04-24T02:23:32;11.60;99.90
23703;DHT22;12030;50.376;8.762;2023-04-24T02:25:57;11.50;99.90
23703;DHT22;12030;50.376;8.762;2023-04-24T02:28:23;11.50;99.90
23703;DHT22;12030;50.376;8.762;2023-04-24T02:30:48;11.50;99.90
23703;DHT22;12030;50.376;8.762;2023-04-24T02:33:14;11.50;99.90
23703;DHT22;12030;50.376;8.762;2023-04-24T02:35:39;11.40;99.90
23703;DHT22;12030;50.376;8.762;2023-04-24T02:38:05;11.30;99.90
23703;DHT22;12030;50.376;8.762;2023-04-24T02:40:30;11.30;99.90
23703;DHT22;12030;50.376;8.762;2023-04-24T02:42:57;11.30;99.90
23703;DHT22;12030;50.376;8.762;2023-04-24T02:45:22;11.30;99.90
23703;DHT22;12030;50.376;8.762;2023-04-24T02:47:48;11.30;99.90
23703;DHT22;12030;50.376;8.762;2023-04-24T02:50:13;11.30;99.90
23703;DHT22;12030;50.376;8.762;2023-04-24T02:52:39;11.30;99.90
23703;DHT22;12030;50.376;8.762;2023-04-24T02:55:05;11.20;99.90
23703;DHT22;12030;50.376;8.762;2023-04-24T02:57:30;11.20;99.90
23703;DHT22;12030;50.376;8.762;2023-04-24T02:59:56;11.20;99.90
23703;DHT22;12030;50.376;8.762;2023-04-24T03:02:21;11.20;99.90
23703;DHT22;12030;50.376;8.762;2023-04-24T03:04:47;11.20;99.90
23703;DHT22;12030;50.376;8.762;2023-04-24T03:07:15;11.10;99.90
23703;DHT22;12030;50.376;8.762;2023-04-24T03:09:41;11.10;99.90
23703;DHT22;12030;50.376;8.762;2023-04-24T03:12:06;11.10;99.90
23703;DHT22;12030;50.376;8.762;2023-04-24T03:14:32;11.10;99.90
23703;DHT22;12030;50.376;8.762;2023-04-24T03:16:58;11.00;99.90
23703;DHT22;12030;50.376;8.762;2023-04-24T03:19:23;11.00;99.90
23703;DHT22;12030;50.376;8.762;2023-04-24T03:21:49;11.00;99.90
23703;DHT22;12030;50.376;8.762;2023-04-24T03:24:15;11.00;99.90
23703;DHT22;12030;50.376;8.762;2023-04-24T03:26:40;11.30;99.90
23703;DHT22;12030;50.376;8.762;2023-04-24T03:29:06;11.00;99.90
23703;DHT22;12030;50.376;8.762;2023-04-24T03:31:31;10.90;99.90
23703;DHT22;12030;50.376;8.762;2023-04-24T03:33:57;10.90;99.90
23703;DHT22;12030;50.376;8.762;2023-04-24T03:36:22;11.00;99.90
23703;DHT22;12030;50.376;8.762;2023-04-24T03:38:48;11.00;99.90
23703;DHT22;12030;50.376;8.762;2023-04-24T03:41:13;10.90;99.90
23703;DHT22;12030;50.376;8.762;2023-04-24T03:43:39;10.90;99.90
23703;DHT22;12030;50.376;8.762;2023-04-24T03:46:05;10.90;99.90
23703;DHT22;12030;50.376;8.762;2023-04-24T03:48:31;11.00;99.90
23703;DHT22;12030;50.376;8.762;2023-04-24T03:50:56;10.90;99.90
23703;DHT22;12030;50.376;8.762;2023-04-24T03:53:22;10.90;99.90
23703;DHT22;12030;50.376;8.762;2023-04-24T03:55:47;10.90;99.90
23703;DHT22;12030;50.376;8.762;2023-04-24T03:58:13;10.90;99.90
23703;DHT22;12030;50.376;8.762;2023-04-24T04:00:43;10.90;99.90
23703;DHT22;12030;50.376;8.762;2023-04-24T04:03:09;10.90;99.90
23703;DHT22;12030;50.376;8.762;2023-04-24T04:05:35;10.90;99.90
23703;DHT22;12030;50.376;8.762;2023-04-24T04:08:00;10.80;99.90
23703;DHT22;12030;50.376;8.762;2023-04-24T04:10:26;10.70;99.90
23703;DHT22;12030;50.376;8.762;2023-04-24T04:12:51;10.70;99.90
23703;DHT22;12030;50.376;8.762;2023-04-24T04:15:17;10.70;99.90
23703;DHT22;12030;50.376;8.762;2023-04-24T04:17:42;10.60;99.90
23703;DHT22;12030;50.376;8.762;2023-04-24T04:20:08;10.60;99.90
23703;DHT22;12030;50.376;8.762;2023-04-24T04:22:36;10.50;99.90
23703;DHT22;12030;50.376;8.762;2023-04-24T04:25:03;10.40;99.90
23703;DHT22;12030;50.376;8.762;2023-04-24T04:27:28;10.40;99.90
23703;DHT22;12030;50.376;8.762;2023-04-24T04:29:58;10.30;99.90
23703;DHT22;12030;50.376;8.762;2023-04-24T04:32:24;10.30;99.90
23703;DHT22;12030;50.376;8.762;2023-04-24T04:34:50;10.10;99.90
23703;DHT22;12030;50.376;8.762;2023-04-24T04:37:18;10.10;99.90
23703;DHT22;12030;50.376;8.762;2023-04-24T04:39:44;10.00;99.90
23703;DHT22;12030;50.376;8.762;2023-04-24T04:42:09;10.10;99.90
23703;DHT22;12030;50.376;8.762;2023-04-24T04:44:35;10.00;99.90
23703;DHT22;12030;50.376;8.762;2023-04-24T04:47:01;10.00;99.90
23703;DHT22;12030;50.376;8.762;2023-04-24T04:49:31;9.90;99.90
23703;DHT22;12030;50.376;8.762;2023-04-24T04:51:56;9.80;99.90
23703;DHT22;12030;50.376;8.762;2023-04-24T04:54:22;9.70;99.90
23703;DHT22;12030;50.376;8.762;2023-04-24T04:56:50;9.70;99.90
23703;DHT22;12030;50.376;8.762;2023-04-24T04:59:15;9.50;99.90
23703;DHT22;12030;50.376;8.762;2023-04-24T05:01:41;9.50;99.90
23703;DHT22;12030;50.376;8.762;2023-04-24T05:04:07;9.50;99.90
23703;DHT22;12030;50.376;8.762;2023-04-24T05:06:32;9.30;99.90
23703;DHT22;12030;50.376;8.762;2023-04-24T05:08:58;9.20;99.90
23703;DHT22;12030;50.376;8.762;2023-04-24T05:11:23;9.30;99.90
23703;DHT22;12030;50.376;8.762;2023-04-24T05:13:49;9.30;99.90
23703;DHT22;12030;50.376;8.762;2023-04-24T05:16:15;9.30;99.90
23703;DHT22;12030;50.376;8.762;2023-04-24T05:18:40;9.20;99.90
23703;DHT22;12030;50.376;8.762;2023-04-24T05:21:06;9.20;99.90
23703;DHT22;12030;50.376;8.762;2023-04-24T05:23:31;9.20;99.90
23703;DHT22;12030;50.376;8.762;2023-04-24T05:25:57;9.30;99.90
23703;DHT22;12030;50.376;8.762;2023-04-24T05:28:22;9.30;99.90
23703;DHT22;12030;50.376;8.762;2023-04-24T05:30:48;9.40;99.90
23703;DHT22;12030;50.376;8.762;2023-04-24T05:33:14;9.50;99.90
23703;DHT22;12030;50.376;8.762;2023-04-24T05:35:40;9.50;99.90
23703;DHT22;12030;50.376;8.762;2023-04-24T05:38:11;9.50;99.90
23703;DHT22;12030;50.376;8.762;2023-04-24T05:40:36;9.60;99.90
23703;DHT22;12030;50.376;8.762;2023-04-24T05:43:02;9.70;99.90
23703;DHT22;12030;50.376;8.762;2023-04-24T05:45:27;9.80;99.90
23703;DHT22;12030;50.376;8.762;2023-04-24T05:47:53;9.90;99.90
23703;DHT22;12030;50.376;8.762;2023-04-24T05:50:19;10.00;99.90
23703;DHT22;12030;50.376;8.762;2023-04-24T05:52:44;10.10;99.90
23703;DHT22;12030;50.376;8.762;2023-04-24T05:55:10;10.20;99.90
23703;DHT22;12030;50.376;8.762;2023-04-24T05:57:35;10.20;99.90
23703;DHT22;12030;50.376;8.762;2023-04-24T06:00:01;10.30;99.90
23703;DHT22;12030;50.376;8.762;2023-04-24T06:02:26;10.40;99.90
23703;DHT22;12030;50.376;8.762;2023-04-24T06:04:52;10.50;99.90
23703;DHT22;12030;50.376;8.762;2023-04-24T06:07:18;10.50;99.90
23703;DHT22;12030;50.376;8.762;2023-04-24T06:09:43;10.50;99.90
23703;DHT22;12030;50.376;8.762;2023-04-24T06:12:09;10.60;99.90
23703;DHT22;12030;50.376;8.762;2023-04-24T06:14:35;10.60;99.90
23703;DHT22;12030;50.376;8.762;2023-04-24T06:17:00;10.60;99.90
23703;DHT22;12030;50.376;8.762;2023-04-24T06:19:26;10.50;99.90
23703;DHT22;12030;50.376;8.762;2023-04-24T06:21:51;10.50;99.90
23703;DHT22;12030;50.376;8.762;2023-04-24T06:24:17;10.40;99.90
23703;DHT22;12030;50.376;8.762;2023-04-24T06:26:42;10.30;99.90
23703;DHT22;12030;50.376;8.762;2023-04-24T06:29:08;10.30;99.90
23703;DHT22;12030;50.376;8.762;2023-04-24T06:31:33;10.30;99.90
23703;DHT22;12030;50.376;8.762;2023-04-24T06:34:02;10.30;99.90
23703;DHT22;12030;50.376;8.762;2023-04-24T06:36:28;10.40;99.90
23703;DHT22;12030;50.376;8.762;2023-04-24T06:38:54;10.50;99.90
23703;DHT22;12030;50.376;8.762;2023-04-24T06:41:20;10.60;99.90
23703;DHT22;12030;50.376;8.762;2023-04-24T06:43:45;10.60;99.90
23703;DHT22;12030;50.376;8.762;2023-04-24T06:46:11;10.70;99.90
23703;DHT22;12030;50.376;8.762;2023-04-24T06:48:37;10.70;99.90
23703;DHT22;12030;50.376;8.762;2023-04-24T06:51:02;10.80;99.90
23703;DHT22;12030;50.376;8.762;2023-04-24T06:53:28;10.80;99.90
23703;DHT22;12030;50.376;8.762;2023-04-24T06:55:54;10.90;99.90
23703;DHT22;12030;50.376;8.762;2023-04-24T06:58:20;10.80;99.90
23703;DHT22;12030;50.376;8.762;2023-04-24T07:00:45;10.90;99.90
23703;DHT22;12030;50.376;8.762;2023-04-24T07:03:11;10.90;99.90
23703;DHT22;12030;50.376;8.762;2023-04-24T07:05:37;11.00;99.90
23703;DHT22;12030;50.376;8.762;2023-04-24T07:08:03;10.90;99.90
23703;DHT22;12030;50.376;8.762;2023-04-24T07:10:29;11.00;99.90
23703;DHT22;12030;50.376;8.762;2023-04-24T07:12:55;11.00;99.90
23703;DHT22;12030;50.376;8.762;2023-04-24T07:15:22;11.00;99.90
23703;DHT22;12030;50.376;8.762;2023-04-24T07:17:48;11.00;99.90
23703;DHT22;12030;50.376;8.762;2023-04-24T07:20:14;11.00;99.90
23703;DHT22;12030;50.376;8.762;2023-04-24T07:22:41;11.00;99.90
23703;DHT22;12030;50.376;8.762;2023-04-24T07:25:07;11.20;99.90
23703;DHT22;12030;50.376;8.762;2023-04-24T07:27:33;11.30;99.90
23703;DHT22;12030;50.376;8.762;2023-04-24T07:29:59;11.40;99.90
23703;DHT22;12030;50.376;8.762;2023-04-24T07:32:26;11.50;99.90
23703;DHT22;12030;50.376;8.762;2023-04-24T07:34:51;11.60;99.90
23703;DHT22;12030;50.376;8.762;2023-04-24T07:37:17;11.80;99.90
23703;DHT22;12030;50.376;8.762;2023-04-24T07:39:42;11.90;99.90
23703;DHT22;12030;50.376;8.762;2023-04-24T07:42:08;11.90;99.90
23703;DHT22;12030;50.376;8.762;2023-04-24T07:44:33;12.00;99.90
23703;DHT22;12030;50.376;8.762;2023-04-24T07:46:59;12.10;99.90
23703;DHT22;12030;50.376;8.762;2023-04-24T07:49:25;12.20;99.90
23703;DHT22;12030;50.376;8.762;2023-04-24T07:51:50;12.30;99.90
23703;DHT22;12030;50.376;8.762;2023-04-24T07:54:16;12.40;99.90
23703;DHT22;12030;50.376;8.762;2023-04-24T07:56:42;12.40;99.90
23703;DHT22;12030;50.376;8.762;2023-04-24T07:59:08;12.50;99.90
23703;DHT22;12030;50.376;8.762;2023-04-24T08:01:35;12.60;99.90
23703;DHT22;12030;50.376;8.762;2023-04-24T08:04:00;12.80;99.90
23703;DHT22;12030;50.376;8.762;2023-04-24T08:06:26;12.60;99.90
23703;DHT22;12030;50.376;8.762;2023-04-24T08:08:59;12.60;99.90
23703;DHT22;12030;50.376;8.762;2023-04-24T08:11:25;12.80;99.90
23703;DHT22;12030;50.376;8.762;2023-04-24T08:13:51;12.90;99.90
23703;DHT22;12030;50.376;8.762;2023-04-24T08:16:16;12.90;99.90
23703;DHT22;12030;50.376;8.762;2023-04-24T08:18:42;13.10;99.90
23703;DHT22;12030;50.376;8.762;2023-04-24T08:21:08;13.00;99.90
23703;DHT22;12030;50.376;8.762;2023-04-24T08:23:33;12.90;99.90
23703;DHT22;12030;50.376;8.762;2023-04-24T08:25:59;12.90;99.90
23703;DHT22;12030;50.376;8.762;2023-04-24T08:28:24;13.00;99.90
23703;DHT22;12030;50.376;8.762;2023-04-24T08:30:50;13.00;99.90
23703;DHT22;12030;50.376;8.762;2023-04-24T08:33:23;13.10;99.90
23703;DHT22;12030;50.376;8.762;2023-04-24T08:35:49;13.10;99.90
23703;DHT22;12030;50.376;8.762;2023-04-24T08:38:15;13.00;99.90
23703;DHT22;12030;50.376;8.762;2023-04-24T08:40:41;12.90;99.90
23703;DHT22;12030;50.376;8.762;2023-04-24T08:43:07;13.00;99.90
23703;DHT22;12030;50.376;8.762;2023-04-24T08:45:33;13.00;99.90
23703;DHT22;12030;50.376;8.762;2023-04-24T08:47:58;12.90;99.90
23703;DHT22;12030;50.376;8.762;2023-04-24T08:50:25;12.80;99.90
23703;DHT22;12030;50.376;8.762;2023-04-24T08:52:52;12.80;99.90
23703;DHT22;12030;50.376;8.762;2023-04-24T08:55:22;12.60;99.90
23703;DHT22;12030;50.376;8.762;2023-04-24T08:57:51;12.60;99.90
23703;DHT22;12030;50.376;8.762;2023-04-24T09:00:21;12.50;99.90
23703;DHT22;12030;50.376;8.762;2023-04-24T09:02:49;12.50;99.90
23703;DHT22;12030;50.376;8.762;2023-04-24T09:05:16;14.00;99.90
23703;DHT22;12030;50.376;8.762;2023-04-24T09:07:45;12.50;99.90
23703;DHT22;12030;50.376;8.762;2023-04-24T09:10:11;12.60;99.90
23703;DHT22;12030;50.376;8.762;2023-04-24T09:12:37;12.60;99.90
23703;DHT22;12030;50.376;8.762;2023-04-24T09:15:03;12.70;99.90
23703;DHT22;12030;50.376;8.762;2023-04-24T09:17:30;12.80;99.90
23703;DHT22;12030;50.376;8.762;2023-04-24T09:19:56;13.00;99.90
23703;DHT22;12030;50.376;8.762;2023-04-24T09:22:21;12.90;99.90
23703;DHT22;12030;50.376;8.762;2023-04-24T09:24:47;13.00;99.90
23703;DHT22;12030;50.376;8.762;2023-04-24T09:27:13;13.00;99.90
23703;DHT22;12030;50.376;8.762;2023-04-24T09:29:53;13.00;99.90
23703;DHT22;12030;50.376;8.762;2023-04-24T09:32:21;13.00;99.90
23703;DHT22;12030;50.376;8.762;2023-04-24T09:34:48;13.10;99.90
23703;DHT22;12030;50.376;8.762;2023-04-24T09:37:29;13.20;99.90
23703;DHT22;12030;50.376;8.762;2023-04-24T09:40:15;13.20;99.90
23703;DHT22;12030;50.376;8.762;2023-04-24T09:42:55;13.20;99.90
23703;DHT22;12030;50.376;8.762;2023-04-24T09:45:36;13.20;99.90
23703;DHT22;12030;50.376;8.762;2023-04-24T09:48:02;13.20;99.90
23703;DHT22;12030;50.376;8.762;2023-04-24T09:50:30;13.30;99.90
23703;DHT22;12030;50.376;8.762;2023-04-24T09:52:58;13.30;99.90
23703;DHT22;12030;50.376;8.762;2023-04-24T09:55:24;13.30;99.90
23703;DHT22;12030;50.376;8.762;2023-04-24T09:57:56;13.10;99.90
23703;DHT22;12030;50.376;8.762;2023-04-24T10:00:26;13.00;99.90
23703;DHT22;12030;50.376;8.762;2023-04-24T10:03:05;13.00;99.90
23703;DHT22;12030;50.376;8.762;2023-04-24T10:05:33;13.00;99.90
23703;DHT22;12030;50.376;8.762;2023-04-24T10:08:10;13.20;99.90
23703;DHT22;12030;50.376;8.762;2023-04-24T10:10:43;13.30;99.90
23703;DHT22;12030;50.376;8.762;2023-04-24T10:13:09;13.50;99.90
23703;DHT22;12030;50.376;8.762;2023-04-24T10:15:37;13.90;99.90
23703;DHT22;12030;50.376;8.762;2023-04-24T10:18:04;14.10;99.90
23703;DHT22;12030;50.376;8.762;2023-04-24T10:20:32;14.50;99.90
23703;DHT22;12030;50.376;8.762;2023-04-24T10:22:59;14.60;99.90
23703;DHT22;12030;50.376;8.762;2023-04-24T10:25:33;14.60;99.90
23703;DHT22;12030;50.376;8.762;2023-04-24T10:27:59;14.50;99.90
23703;DHT22;12030;50.376;8.762;2023-04-24T10:30:30;14.40;99.90
23703;DHT22;12030;50.376;8.762;2023-04-24T10:32:59;14.30;99.90
23703;DHT22;12030;50.376;8.762;2023-04-24T10:35:24;14.30;99.90
23703;DHT22;12030;50.376;8.762;2023-04-24T10:37:59;14.30;99.90
23703;DHT22;12030;50.376;8.762;2023-04-24T10:40:30;14.30;99.90
23703;DHT22;12030;50.376;8.762;2023-04-24T10:42:56;14.40;99.90
23703;DHT22;12030;50.376;8.762;2023-04-24T10:45:23;14.30;99.90
23703;DHT22;12030;50.376;8.762;2023-04-24T10:48:04;14.40;99.90
23703;DHT22;12030;50.376;8.762;2023-04-24T10:50:51;14.30;99.90
23703;DHT22;12030;50.376;8.762;2023-04-24T10:53:21;14.20;99.90
23703;DHT22;12030;50.376;8.762;2023-04-24T10:56:06;13.90;99.90
23703;DHT22;12030;50.376;8.762;2023-04-24T11:01:03;13.60;99.90
23703;DHT22;12030;50.376;8.762;2023-04-24T11:03:31;13.30;99.90
23703;DHT22;12030;50.376;8.762;2023-04-24T11:06:08;13.20;99.90
23703;DHT22;12030;50.376;8.762;2023-04-24T11:08:43;13.00;99.90
23703;DHT22;12030;50.376;8.762;2023-04-24T11:11:15;12.80;99.90
23703;DHT22;12030;50.376;8.762;2023-04-24T11:18:56;12.00;99.90
23703;DHT22;12030;50.376;8.762;2023-04-24T11:21:25;11.80;99.90
23703;DHT22;12030;50.376;8.762;2023-04-24T11:23:51;11.60;99.90
23703;DHT22;12030;50.376;8.762;2023-04-24T11:26:19;11.60;99.90
23703;DHT22;12030;50.376;8.762;2023-04-24T11:28:50;11.70;99.90
23703;DHT22;12030;50.376;8.762;2023-04-24T11:31:54;11.90;99.90
23703;DHT22;12030;50.376;8.762;2023-04-24T11:34:20;12.10;99.90
23703;DHT22;12030;50.376;8.762;2023-04-24T11:36:46;12.30;99.90
23703;DHT22;12030;50.376;8.762;2023-04-24T11:39:13;12.30;99.90
23703;DHT22;12030;50.376;8.762;2023-04-24T11:41:39;12.40;99.90
23703;DHT22;12030;50.376;8.762;2023-04-24T11:44:09;12.50;99.90
23703;DHT22;12030;50.376;8.762;2023-04-24T11:46:34;12.60;99.90
23703;DHT22;12030;50.376;8.762;2023-04-24T11:49:00;12.70;99.90
23703;DHT22;12030;50.376;8.762;2023-04-24T11:51:27;12.70;99.90
23703;DHT22;12030;50.376;8.762;2023-04-24T11:53:54;12.70;99.90
23703;DHT22;12030;50.376;8.762;2023-04-24T11:56:22;12.70;99.90
23703;DHT22;12030;50.376;8.762;2023-04-24T11:58:48;12.80;99.90
23703;DHT22;12030;50.376;8.762;2023-04-24T12:01:14;13.00;99.90
23703;DHT22;12030;50.376;8.762;2023-04-24T12:03:40;13.00;99.90
23703;DHT22;12030;50.376;8.762;2023-04-24T12:06:10;13.30;99.90
23703;DHT22;12030;50.376;8.762;2023-04-24T12:08:36;13.30;99.90
23703;DHT22;12030;50.376;8.762;2023-04-24T12:11:04;13.20;99.90
23703;DHT22;12030;50.376;8.762;2023-04-24T12:13:30;13.20;99.90
23703;DHT22;12030;50.376;8.762;2023-04-24T12:15:57;13.20;99.90
23703;DHT22;12030;50.376;8.762;2023-04-24T12:18:23;13.20;99.90
23703;DHT22;12030;50.376;8.762;2023-04-24T12:20:49;13.40;99.90
23703;DHT22;12030;50.376;8.762;2023-04-24T12:23:15;13.30;99.90
23703;DHT22;12030;50.376;8.762;2023-04-24T12:25:40;13.40;99.90
23703;DHT22;12030;50.376;8.762;2023-04-24T12:30:35;13.50;99.90
23703;DHT22;12030;50.376;8.762;2023-04-24T12:33:02;13.50;99.90
23703;DHT22;12030;50.376;8.762;2023-04-24T12:35:30;13.50;99.90
23703;DHT22;12030;50.376;8.762;2023-04-24T12:38:09;13.50;99.90
23703;DHT22;12030;50.376;8.762;2023-04-24T12:40:34;13.40;99.90
23703;DHT22;12030;50.376;8.762;2023-04-24T12:43:00;13.00;99.90
23703;DHT22;12030;50.376;8.762;2023-04-24T12:45:26;12.90;99.90
23703;DHT22;12030;50.376;8.762;2023-04-24T12:47:53;12.70;99.90
23703;DHT22;12030;50.376;8.762;2023-04-24T12:50:19;12.30;99.90
23703;DHT22;12030;50.376;8.762;2023-04-24T12:52:45;12.10;99.90
23703;DHT22;12030;50.376;8.762;2023-04-24T12:55:10;12.20;99.90
23703;DHT22;12030;50.376;8.762;2023-04-24T12:57:38;12.10;99.90
23703;DHT22;12030;50.376;8.762;2023-04-24T13:00:05;12.20;99.90
23703;DHT22;12030;50.376;8.762;2023-04-24T13:02:31;12.30;99.90
23703;DHT22;12030;50.376;8.762;2023-04-24T13:05:00;12.40;99.90
23703;DHT22;12030;50.376;8.762;2023-04-24T13:07:27;12.70;99.90
23703;DHT22;12030;50.376;8.762;2023-04-24T13:09:54;13.00;99.90
23703;DHT22;12030;50.376;8.762;2023-04-24T13:12:20;13.10;99.90
23703;DHT22;12030;50.376;8.762;2023-04-24T13:14:45;13.50;99.90
23703;DHT22;12030;50.376;8.762;2023-04-24T13:17:11;13.60;99.90
23703;DHT22;12030;50.376;8.762;2023-04-24T13:19:39;13.70;99.90
23703;DHT22;12030;50.376;8.762;2023-04-24T13:22:05;13.70;99.90
23703;DHT22;12030;50.376;8.762;2023-04-24T13:24:31;13.80;99.90
23703;DHT22;12030;50.376;8.762;2023-04-24T13:26:57;14.00;99.90
23703;DHT22;12030;50.376;8.762;2023-04-24T13:29:23;14.20;99.90
23703;DHT22;12030;50.376;8.762;2023-04-24T13:31:53;14.10;99.90
23703;DHT22;12030;50.376;8.762;2023-04-24T13:34:23;14.00;99.90
23703;DHT22;12030;50.376;8.762;2023-04-24T13:36:50;14.10;99.90
23703;DHT22;12030;50.376;8.762;2023-04-24T13:39:16;14.50;99.90
23703;DHT22;12030;50.376;8.762;2023-04-24T13:41:42;14.70;99.90
23703;DHT22;12030;50.376;8.762;2023-04-24T13:44:08;14.70;99.90
23703;DHT22;12030;50.376;8.762;2023-04-24T13:46:34;14.90;99.90
23703;DHT22;12030;50.376;8.762;2023-04-24T13:48:59;14.80;99.90
23703;DHT22;12030;50.376;8.762;2023-04-24T13:51:25;14.90;99.90
23703;DHT22;12030;50.376;8.762;2023-04-24T13:53:54;14.90;99.90
23703;DHT22;12030;50.376;8.762;2023-04-24T13:56:20;15.10;99.90
23703;DHT22;12030;50.376;8.762;2023-04-24T13:58:47;14.90;99.90
23703;DHT22;12030;50.376;8.762;2023-04-24T14:01:13;14.40;99.90
23703;DHT22;12030;50.376;8.762;2023-04-24T14:03:40;14.00;99.90
23703;DHT22;12030;50.376;8.762;2023-04-24T14:06:05;13.90;99.90
23703;DHT22;12030;50.376;8.762;2023-04-24T14:08:32;13.60;99.90
23703;DHT22;12030;50.376;8.762;2023-04-24T14:10:57;13.40;99.90
23703;DHT22;12030;50.376;8.762;2023-04-24T14:13:23;13.20;99.90
23703;DHT22;12030;50.376;8.762;2023-04-24T14:15:49;13.50;99.90
23703;DHT22;12030;50.376;8.762;2023-04-24T14:18:14;14.10;99.90
23703;DHT22;12030;50.376;8.762;2023-04-24T14:20:40;14.60;99.90
23703;DHT22;12030;50.376;8.762;2023-04-24T14:23:05;15.10;99.90
23703;DHT22;12030;50.376;8.762;2023-04-24T14:25:31;15.20;99.90
23703;DHT22;12030;50.376;8.762;2023-04-24T14:27:56;15.80;99.90
23703;DHT22;12030;50.376;8.762;2023-04-24T14:30:22;16.00;99.90
23703;DHT22;12030;50.376;8.762;2023-04-24T14:32:48;16.00;99.20
23703;DHT22;12030;50.376;8.762;2023-04-24T14:35:14;16.20;99.90
23703;DHT22;12030;50.376;8.762;2023-04-24T14:37:40;16.20;99.80
23703;DHT22;12030;50.376;8.762;2023-04-24T14:40:09;16.00;98.70
23703;DHT22;12030;50.376;8.762;2023-04-24T14:42:35;16.00;98.70
23703;DHT22;12030;50.376;8.762;2023-04-24T14:45:01;16.20;99.80
23703;DHT22;12030;50.376;8.762;2023-04-24T14:47:27;16.10;98.70
23703;DHT22;12030;50.376;8.762;2023-04-24T14:49:52;15.50;99.40
23703;DHT22;12030;50.376;8.762;2023-04-24T14:52:18;14.90;99.30
23703;DHT22;12030;50.376;8.762;2023-04-24T14:54:44;14.40;98.40
23703;DHT22;12030;50.376;8.762;2023-04-24T14:57:09;13.90;99.10
23703;DHT22;12030;50.376;8.762;2023-04-24T14:59:35;13.70;99.60
23703;DHT22;12030;50.376;8.762;2023-04-24T15:02:01;13.50;99.90
23703;DHT22;12030;50.376;8.762;2023-04-24T15:04:27;13.40;99.90
23703;DHT22;12030;50.376;8.762;2023-04-24T15:06:54;13.40;99.90
23703;DHT22;12030;50.376;8.762;2023-04-24T15:09:21;13.60;99.90
23703;DHT22;12030;50.376;8.762;2023-04-24T15:11:47;13.70;99.90
23703;DHT22;12030;50.376;8.762;2023-04-24T15:14:12;13.60;99.90
23703;DHT22;12030;50.376;8.762;2023-04-24T15:16:38;13.90;99.90
23703;DHT22;12030;50.376;8.762;2023-04-24T15:19:04;14.60;99.90
23703;DHT22;12030;50.376;8.762;2023-04-24T15:21:29;15.00;99.20
23703;DHT22;12030;50.376;8.762;2023-04-24T15:23:56;15.30;99.30
23703;DHT22;12030;50.376;8.762;2023-04-24T15:26:23;15.20;98.60
23703;DHT22;12030;50.376;8.762;2023-04-24T15:28:48;15.10;98.60
23703;DHT22;12030;50.376;8.762;2023-04-24T15:31:14;15.20;99.90
23703;DHT22;12030;50.376;8.762;2023-04-24T15:33:40;15.30;97.20
23703;DHT22;12030;50.376;8.762;2023-04-24T15:36:05;15.20;97.50
23703;DHT22;12030;50.376;8.762;2023-04-24T15:38:31;15.50;97.30
23703;DHT22;12030;50.376;8.762;2023-04-24T15:40:57;15.70;97.20